Time;durP1;ratioP1;P1;durP2;ratioP2;P2;SDS_P1;SDS_P2;PMS_P1;PMS_P2;Temp;Humidity;BMP_temperature;BMP_pressure;BME280_temperature;BME280_humidity;BME280_pressure;Samples;Min_cycle;Max_cycle;Signal;HPM_P1;HPM_P2
2021/03/19 00:01:34;;;;;;;0.30;0.30;;;3.40;99.90;;;;;;5093939;28;20171;-70
2021/03/19 00:03:59;;;;;;;0.30;0.30;;;3.40;99.90;;;;;;5092992;28;20175;-71
2021/03/19 00:06:25;;;;;;;0.33;0.33;;;3.40;99.90;;;;;;5093550;28;20453;-71
2021/03/19 00:08:51;;;;;;;1.40;1.30;;;3.40;99.90;;;;;;5093058;28;20183;-69
2021/03/19 00:11:17;;;;;;;0.30;0.30;;;3.30;99.90;;;;;;5082277;28;20169;-68
2021/03/19 00:13:43;;;;;;;0.35;0.35;;;3.30;99.90;;;;;;5072138;28;20499;-72
2021/03/19 00:16:09;;;;;;;0.40;0.40;;;3.30;99.90;;;;;;5077827;28;20353;-69
2021/03/19 00:18:36;;;;;;;1.95;1.15;;;3.30;99.90;;;;;;5093742;28;20405;-70
2021/03/19 00:21:03;;;;;;;0.30;0.30;;;3.20;99.90;;;;;;5093487;28;20179;-70
2021/03/19 00:23:29;;;;;;;0.30;0.30;;;3.20;99.90;;;;;;5093310;28;20179;-70
2021/03/19 00:25:54;;;;;;;0.93;0.93;;;3.10;99.90;;;;;;5093224;28;20658;-70
2021/03/19 00:28:20;;;;;;;1.63;1.53;;;3.10;99.90;;;;;;5092252;28;20164;-69
2021/03/19 00:30:47;;;;;;;0.30;0.30;;;3.00;99.90;;;;;;5093108;28;20302;-70
2021/03/19 00:33:14;;;;;;;0.30;0.30;;;3.00;99.90;;;;;;5093284;28;20200;-69
2021/03/19 00:35:43;;;;;;;0.30;0.30;;;3.00;99.90;;;;;;5092563;28;20546;-70
2021/03/19 00:38:09;;;;;;;0.30;0.30;;;3.00;99.90;;;;;;5093114;28;20172;-71
2021/03/19 00:40:36;;;;;;;0.30;0.30;;;2.90;99.90;;;;;;5092058;28;20191;-69
2021/03/19 00:43:03;;;;;;;0.57;0.57;;;2.90;99.90;;;;;;5093175;28;20172;-69
2021/03/19 00:45:29;;;;;;;0.30;0.30;;;2.90;99.90;;;;;;5093008;28;20184;-69
2021/03/19 00:47:55;;;;;;;0.63;0.63;;;2.90;99.90;;;;;;5093337;28;20221;-70
2021/03/19 00:50:35;;;;;;;0.40;0.40;;;2.90;99.90;;;;;;5092891;28;20168;-71
2021/03/19 00:53:05;;;;;;;0.30;0.30;;;2.90;99.90;;;;;;5092182;28;20760;-70
2021/03/19 00:55:33;;;;;;;0.30;0.30;;;2.90;99.90;;;;;;5092755;28;20200;-72
2021/03/19 00:57:59;;;;;;;0.40;0.40;;;2.80;99.90;;;;;;5095228;28;20514;-70
2021/03/19 01:00:29;;;;;;;0.30;0.30;;;2.80;99.90;;;;;;5095729;28;20187;-71
2021/03/19 01:02:55;;;;;;;0.30;0.30;;;2.80;99.90;;;;;;5097384;28;20255;-70
2021/03/19 01:05:28;;;;;;;0.37;0.37;;;2.80;99.90;;;;;;5096297;28;20266;-70
2021/03/19 01:07:54;;;;;;;0.40;0.40;;;2.80;99.90;;;;;;5097288;28;20456;-70
2021/03/19 01:10:42;;;;;;;0.30;0.30;;;2.80;99.90;;;;;;5095492;28;20526;-70
2021/03/19 01:13:09;;;;;;;0.30;0.30;;;2.80;99.90;;;;;;5097054;28;20425;-70
2021/03/19 01:15:35;;;;;;;0.30;0.30;;;2.80;99.90;;;;;;5096487;28;20262;-68
2021/03/19 01:18:02;;;;;;;0.30;0.30;;;2.80;99.90;;;;;;5097263;28;20630;-71
2021/03/19 01:20:29;;;;;;;0.30;0.30;;;2.70;99.90;;;;;;5096924;28;20425;-70
2021/03/19 01:22:55;;;;;;;0.30;0.30;;;2.80;99.90;;;;;;5096945;28;20164;-69
2021/03/19 01:25:26;;;;;;;0.45;0.45;;;2.80;99.90;;;;;;5096053;28;20715;-70
2021/03/19 01:27:52;;;;;;;0.30;0.30;;;2.80;99.90;;;;;;5096171;28;20225;-69
2021/03/19 01:30:21;;;;;;;0.30;0.30;;;2.80;99.90;;;;;;5096663;28;20164;-67
2021/03/19 01:32:47;;;;;;;0.60;0.60;;;2.70;99.90;;;;;;5096476;28;20464;-67
2021/03/19 01:35:14;;;;;;;0.30;0.30;;;2.70;99.90;;;;;;5096323;28;20176;-69
2021/03/19 01:37:41;;;;;;;1.50;1.40;;;2.60;99.90;;;;;;5095968;28;20164;-70
2021/03/19 01:40:09;;;;;;;0.40;0.40;;;2.60;99.90;;;;;;5096284;28;20225;-71
2021/03/19 01:42:38;;;;;;;0.30;0.30;;;2.60;99.90;;;;;;5096550;28;20168;-71
2021/03/19 01:45:38;;;;;;;0.35;0.35;;;2.50;99.90;;;;;;5094697;28;20183;-70
2021/03/19 01:48:41;;;;;;;0.35;0.35;;;2.50;99.90;;;;;;5096111;28;20275;-70
2021/03/19 01:51:44;;;;;;;0.70;0.70;;;2.50;99.90;;;;;;5096003;28;20794;-71
2021/03/19 01:54:47;;;;;;;0.30;0.30;;;2.60;99.90;;;;;;5074565;28;20340;-72
2021/03/19 01:57:50;;;;;;;0.60;0.60;;;2.60;99.90;;;;;;5080657;28;20204;-71
2021/03/19 02:00:53;;;;;;;0.30;0.30;;;2.60;99.90;;;;;;5095784;28;20187;-71
2021/03/19 02:03:56;;;;;;;0.30;0.30;;;2.50;99.90;;;;;;5095881;28;20171;-70
2021/03/19 02:07:02;;;;;;;0.30;0.30;;;2.50;99.90;;;;;;5095732;28;20200;-71
2021/03/19 02:10:05;;;;;;;0.32;0.32;;;2.40;99.90;;;;;;5075134;28;20511;-70
2021/03/19 02:13:08;;;;;;;0.30;0.30;;;2.40;99.90;;;;;;5079037;28;20538;-70
2021/03/19 02:16:11;;;;;;;0.40;0.40;;;2.40;99.90;;;;;;5094750;28;20204;-71
2021/03/19 02:19:14;;;;;;;0.30;0.30;;;2.30;99.90;;;;;;5075719;28;20195;-71
2021/03/19 02:22:17;;;;;;;0.30;0.30;;;2.30;99.90;;;;;;5081539;28;20172;-70
2021/03/19 02:25:20;;;;;;;0.30;0.30;;;2.30;99.90;;;;;;5095269;28;20638;-71
2021/03/19 02:28:23;;;;;;;0.52;0.52;;;2.30;99.90;;;;;;5095345;28;20288;-69
2021/03/19 02:31:10;;;;;;;1.02;1.02;;;2.20;99.90;;;;;;5095590;28;20537;-71
2021/03/19 02:33:52;;;;;;;0.40;0.40;;;2.30;99.90;;;;;;5075360;28;20172;-70
2021/03/19 02:36:21;;;;;;;0.30;0.30;;;2.30;99.90;;;;;;5091814;28;20224;-69
2021/03/19 02:38:52;;;;;;;0.30;0.30;;;2.40;99.90;;;;;;5094762;28;20179;-70
2021/03/19 02:41:19;;;;;;;0.73;0.73;;;2.40;99.90;;;;;;5095420;28;20181;-72
2021/03/19 02:43:47;;;;;;;0.40;0.40;;;2.40;99.90;;;;;;5095132;28;20184;-70
2021/03/19 02:46:14;;;;;;;0.30;0.30;;;2.40;99.90;;;;;;5094998;28;20261;-71
2021/03/19 02:48:49;;;;;;;2.15;2.05;;;2.40;99.90;;;;;;5094031;28;20179;-71
2021/03/19 02:51:17;;;;;;;0.30;0.30;;;2.50;99.90;;;;;;5093726;28;20195;-70
2021/03/19 02:53:58;;;;;;;1.35;1.35;;;2.40;99.90;;;;;;5094819;28;20180;-71
2021/03/19 02:56:24;;;;;;;0.30;0.30;;;2.40;99.90;;;;;;5093166;28;20202;-70
2021/03/19 02:58:56;;;;;;;0.40;0.40;;;2.40;99.90;;;;;;5095280;28;20176;-69
2021/03/19 03:01:24;;;;;;;0.30;0.30;;;2.40;99.90;;;;;;5093458;28;20221;-71
2021/03/19 03:04:11;;;;;;;0.30;0.30;;;2.30;99.90;;;;;;5093991;28;20221;-71
2021/03/19 03:06:38;;;;;;;0.30;0.30;;;2.30;99.90;;;;;;5093400;28;20200;-70
2021/03/19 03:09:09;;;;;;;0.40;0.40;;;2.30;99.90;;;;;;5094408;28;20611;-71
2021/03/19 03:11:36;;;;;;;0.35;0.35;;;2.20;99.90;;;;;;5094438;28;20173;-70
2021/03/19 03:14:17;;;;;;;1.30;1.20;;;2.20;99.90;;;;;;5094572;28;20160;-69
2021/03/19 03:17:13;;;;;;;0.30;0.30;;;2.20;99.90;;;;;;5094063;28;20227;-70
2021/03/19 03:19:48;;;;;;;0.88;0.88;;;2.10;99.90;;;;;;4976844;28;20192;-68
2021/03/19 03:22:13;;;;;;;0.30;0.30;;;2.20;99.90;;;;;;5004290;28;20269;-70
2021/03/19 03:25:08;;;;;;;0.30;0.30;;;2.10;99.90;;;;;;5083294;28;20309;-69
2021/03/19 03:27:35;;;;;;;0.30;0.30;;;2.10;99.90;;;;;;5087384;28;20296;-69
2021/03/19 03:30:00;;;;;;;0.32;0.32;;;2.20;99.90;;;;;;5093345;28;20172;-69
2021/03/19 03:32:27;;;;;;;1.23;1.17;;;2.20;99.90;;;;;;5094255;28;20176;-69
2021/03/19 03:34:52;;;;;;;0.30;0.30;;;2.20;99.90;;;;;;5093710;28;20656;-69
2021/03/19 03:37:18;;;;;;;0.33;0.33;;;2.20;99.90;;;;;;5093961;28;20184;-70
2021/03/19 03:39:58;;;;;;;0.33;0.33;;;2.20;99.90;;;;;;5094540;28;20183;-69
2021/03/19 03:42:24;;;;;;;0.30;0.30;;;2.20;99.90;;;;;;5094097;28;20210;-69
2021/03/19 03:44:53;;;;;;;0.40;0.40;;;2.10;99.90;;;;;;5094341;28;20180;-70
2021/03/19 03:47:19;;;;;;;0.40;0.40;;;2.10;99.90;;;;;;5092889;28;20192;-71
2021/03/19 03:49:44;;;;;;;0.30;0.30;;;2.10;99.90;;;;;;5093684;28;20431;-70
2021/03/19 03:52:10;;;;;;;0.30;0.30;;;2.20;99.90;;;;;;5094098;28;20714;-70
2021/03/19 03:54:36;;;;;;;2.57;1.07;;;2.20;99.90;;;;;;5093359;28;20211;-70
2021/03/19 03:57:01;;;;;;;0.40;0.40;;;2.20;99.90;;;;;;5094006;28;20942;-68
2021/03/19 03:59:30;;;;;;;0.30;0.30;;;2.20;99.90;;;;;;5092258;28;20183;-69
2021/03/19 04:01:55;;;;;;;0.40;0.40;;;2.20;99.90;;;;;;5093811;28;20207;-71
2021/03/19 04:04:21;;;;;;;0.40;0.40;;;2.20;99.90;;;;;;5093337;28;20235;-70
2021/03/19 04:06:47;;;;;;;0.30;0.30;;;2.20;99.90;;;;;;5094129;28;20225;-70
2021/03/19 04:09:33;;;;;;;0.40;0.40;;;2.20;99.90;;;;;;5094384;28;20167;-70
2021/03/19 04:11:58;;;;;;;0.40;0.40;;;2.20;99.90;;;;;;5092391;28;20240;-71
2021/03/19 04:14:27;;;;;;;0.30;0.30;;;2.30;99.90;;;;;;5093041;28;20251;-70
2021/03/19 04:17:05;;;;;;;0.30;0.30;;;2.20;99.90;;;;;;5093247;28;20204;-69
2021/03/19 04:19:49;;;;;;;0.68;0.68;;;2.20;99.90;;;;;;5092874;28;20581;-70
2021/03/19 04:22:15;;;;;;;0.65;0.65;;;2.20;99.90;;;;;;5093420;28;20172;-70
2021/03/19 04:24:41;;;;;;;0.40;0.40;;;2.30;99.90;;;;;;5092019;28;20266;-70
2021/03/19 04:27:07;;;;;;;0.40;0.40;;;2.30;99.90;;;;;;5093016;28;20192;-69
2021/03/19 04:29:32;;;;;;;0.30;0.30;;;2.30;99.90;;;;;;5093434;28;20172;-70
2021/03/19 04:31:58;;;;;;;0.30;0.30;;;2.30;99.90;;;;;;5092277;28;20255;-69
2021/03/19 04:34:23;;;;;;;0.40;0.40;;;2.30;99.90;;;;;;5093321;28;20165;-69
2021/03/19 04:36:52;;;;;;;0.30;0.30;;;2.40;99.90;;;;;;5092948;28;20252;-69
2021/03/19 04:39:31;;;;;;;0.40;0.40;;;2.40;99.90;;;;;;5093307;28;20172;-69
2021/03/19 04:41:59;;;;;;;0.30;0.30;;;2.40;99.90;;;;;;5093342;28;20174;-69
2021/03/19 04:44:29;;;;;;;0.40;0.40;;;2.40;99.90;;;;;;5092915;28;20213;-69
2021/03/19 04:46:55;;;;;;;0.30;0.30;;;2.40;99.90;;;;;;5093143;28;20206;-69
2021/03/19 04:49:21;;;;;;;0.30;0.30;;;2.40;99.90;;;;;;5093222;28;20534;-71
2021/03/19 04:51:56;;;;;;;0.30;0.30;;;2.40;99.90;;;;;;5093435;28;20527;-71
2021/03/19 04:54:22;;;;;;;0.38;0.38;;;2.40;99.90;;;;;;5093024;28;20641;-71
2021/03/19 04:56:48;;;;;;;0.30;0.30;;;2.40;99.90;;;;;;5093021;28;20200;-69
2021/03/19 04:59:14;;;;;;;0.47;0.47;;;2.50;99.90;;;;;;5093438;28;20243;-70
2021/03/19 05:01:48;;;;;;;0.40;0.40;;;2.60;99.90;;;;;;5091823;28;20626;-69
2021/03/19 05:04:13;;;;;;;0.40;0.40;;;2.60;99.90;;;;;;5092809;28;20176;-70
2021/03/19 05:06:39;;;;;;;0.77;0.77;;;2.60;99.90;;;;;;5092529;28;20715;-69
2021/03/19 05:09:13;;;;;;;0.30;0.30;;;2.60;99.90;;;;;;5093492;28;20437;-69
2021/03/19 05:11:48;;;;;;;0.40;0.40;;;2.50;99.90;;;;;;5091468;28;20210;-71
2021/03/19 05:14:16;;;;;;;0.80;0.80;;;2.40;99.90;;;;;;5092869;28;20590;-69
2021/03/19 05:16:41;;;;;;;0.50;0.50;;;2.40;99.90;;;;;;5092434;28;20207;-70
2021/03/19 05:19:07;;;;;;;0.53;0.53;;;2.40;99.90;;;;;;5093287;28;20301;-69
2021/03/19 05:21:33;;;;;;;0.30;0.30;;;2.40;99.90;;;;;;5092897;28;20617;-69
2021/03/19 05:23:58;;;;;;;0.30;0.30;;;2.40;99.90;;;;;;5092949;28;20199;-69
2021/03/19 05:26:24;;;;;;;0.40;0.40;;;2.40;99.90;;;;;;5092563;28;20279;-68
2021/03/19 05:28:49;;;;;;;0.60;0.60;;;2.30;99.90;;;;;;5092793;28;20235;-69
2021/03/19 05:31:15;;;;;;;0.40;0.40;;;2.40;99.90;;;;;;5091319;28;20168;-70
2021/03/19 05:33:48;;;;;;;0.30;0.30;;;2.30;99.90;;;;;;5093181;28;20206;-72
2021/03/19 05:36:18;;;;;;;0.60;0.60;;;2.30;99.90;;;;;;5092722;28;20191;-70
2021/03/19 05:38:50;;;;;;;0.30;0.30;;;2.30;99.90;;;;;;5092966;28;20176;-70
2021/03/19 05:41:18;;;;;;;1.05;1.00;;;2.20;99.90;;;;;;5092303;28;20176;-69
2021/03/19 05:43:58;;;;;;;0.77;0.77;;;2.20;99.90;;;;;;5093500;28;20180;-72
2021/03/19 05:46:39;;;;;;;0.52;0.52;;;2.20;99.90;;;;;;5096023;28;20203;-72
2021/03/19 05:49:08;;;;;;;0.40;0.40;;;2.20;99.90;;;;;;5096804;28;20212;-72
2021/03/19 05:51:56;;;;;;;0.75;0.75;;;2.20;99.90;;;;;;5095019;28;20572;-70
2021/03/19 05:54:38;;;;;;;0.40;0.40;;;2.30;99.90;;;;;;5096364;28;20179;-69
2021/03/19 05:57:28;;;;;;;0.60;0.60;;;2.40;99.90;;;;;;5095464;28;20195;-70
2021/03/19 06:00:19;;;;;;;0.30;0.30;;;2.50;99.90;;;;;;5088395;28;20632;-68
2021/03/19 06:03:10;;;;;;;0.75;0.75;;;2.60;99.90;;;;;;5048025;28;20587;-69
2021/03/19 06:06:13;;;;;;;0.30;0.30;;;2.70;99.90;;;;;;5087458;28;20230;-69
2021/03/19 06:08:49;;;;;;;0.30;0.30;;;2.80;99.90;;;;;;5092919;28;20184;-69
2021/03/19 06:11:29;;;;;;;0.40;0.40;;;2.90;99.90;;;;;;5087189;28;20314;-68
2021/03/19 06:14:17;;;;;;;0.60;0.60;;;2.80;99.90;;;;;;5075381;28;20654;-70
2021/03/19 06:16:52;;;;;;;0.80;0.80;;;2.80;99.90;;;;;;5087335;28;20208;-71
2021/03/19 06:19:56;;;;;;;0.40;0.40;;;2.80;99.90;;;;;;5094539;28;20175;-73
2021/03/19 06:23:02;;;;;;;0.30;0.30;;;2.90;99.90;;;;;;5060505;28;20185;-75
2021/03/19 06:26:01;;;;;;;0.30;0.28;;;3.00;99.90;;;;;;5044624;28;20222;-70
2021/03/19 06:28:39;;;;;;;1.25;1.15;;;3.00;99.90;;;;;;5055592;28;20201;-70
2021/03/19 06:31:21;;;;;;;0.30;0.30;;;3.00;99.90;;;;;;5071126;28;20597;-68
2021/03/19 06:34:01;;;;;;;0.30;0.30;;;3.00;99.90;;;;;;5078333;28;20180;-71
2021/03/19 06:36:26;;;;;;;0.40;0.40;;;3.10;99.90;;;;;;5056010;28;20234;-69
2021/03/19 06:39:28;;;;;;;0.30;0.30;;;3.10;99.90;;;;;;5052038;28;20181;-70
2021/03/19 06:42:17;;;;;;;1.30;1.20;;;3.10;99.90;;;;;;5052375;28;20411;-72
2021/03/19 06:45:00;;;;;;;0.68;0.68;;;3.20;99.90;;;;;;5067915;28;20303;-70
2021/03/19 06:47:43;;;;;;;0.57;0.57;;;3.20;99.90;;;;;;5072751;28;20258;-72
2021/03/19 06:50:37;;;;;;;0.30;0.30;;;3.20;99.90;;;;;;5080963;28;20172;-71
2021/03/19 06:53:34;;;;;;;0.70;0.70;;;3.30;99.90;;;;;;5075478;28;20187;-72
2021/03/19 06:56:18;;;;;;;0.30;0.30;;;3.30;99.90;;;;;;5043030;28;20205;-72
2021/03/19 06:58:49;;;;;;;0.30;0.30;;;3.30;99.90;;;;;;5074521;28;20539;-72
2021/03/19 07:01:38;;;;;;;0.47;0.47;;;3.30;99.90;;;;;;5078815;28;20237;-73
2021/03/19 07:04:37;;;;;;;0.30;0.30;;;3.30;99.90;;;;;;5078647;28;20215;-72
2021/03/19 07:07:32;;;;;;;0.50;0.50;;;3.30;99.90;;;;;;5094427;28;20222;-70
2021/03/19 07:10:03;;;;;;;0.65;0.65;;;3.30;99.90;;;;;;5094854;28;20649;-73
2021/03/19 07:12:51;;;;;;;0.50;0.50;;;3.40;99.90;;;;;;5093278;28;20180;-71
2021/03/19 07:15:19;;;;;;;0.40;0.40;;;3.40;99.90;;;;;;5092792;28;20645;-71
2021/03/19 07:17:59;;;;;;;0.38;0.38;;;3.40;99.90;;;;;;5092906;28;20195;-70
2021/03/19 07:20:47;;;;;;;0.30;0.30;;;3.60;99.90;;;;;;5094427;28;20763;-71
2021/03/19 07:23:16;;;;;;;0.50;0.50;;;3.50;99.90;;;;;;5094442;28;20176;-66
2021/03/19 07:26:08;;;;;;;0.82;0.82;;;3.50;99.90;;;;;;5094032;28;20184;-65
2021/03/19 07:28:49;;;;;;;3.22;2.95;;;3.50;99.90;;;;;;5093785;28;20203;-67
2021/03/19 07:31:52;;;;;;;0.65;0.65;;;3.50;99.90;;;;;;5092868;28;20188;-66
2021/03/19 07:34:54;;;;;;;0.30;0.30;;;3.50;99.90;;;;;;5092973;28;20710;-67
2021/03/19 07:37:23;;;;;;;1.77;1.30;;;3.50;99.90;;;;;;5094013;28;20293;-67
2021/03/19 07:40:25;;;;;;;0.55;0.55;;;3.60;99.90;;;;;;5094052;28;20160;-69
2021/03/19 07:43:11;;;;;;;0.50;0.50;;;3.60;99.90;;;;;;5093868;28;20171;-67
2021/03/19 07:45:52;;;;;;;0.30;0.30;;;3.70;99.90;;;;;;5094022;28;20192;-69
2021/03/19 07:48:29;;;;;;;0.52;0.52;;;3.80;99.90;;;;;;5085357;28;20218;-67
2021/03/19 07:51:03;;;;;;;0.40;0.40;;;4.00;99.90;;;;;;5085362;28;20172;-66
2021/03/19 07:53:37;;;;;;;1.02;1.02;;;4.10;99.90;;;;;;5093845;28;20194;-67
2021/03/19 07:56:22;;;;;;;0.38;0.38;;;4.10;99.90;;;;;;5093416;28;20187;-64
2021/03/19 07:58:58;;;;;;;0.73;0.73;;;4.00;99.90;;;;;;5093550;28;20255;-67
2021/03/19 08:01:32;;;;;;;2.38;1.35;;;4.00;99.90;;;;;;5093792;28;20518;-65
2021/03/19 08:04:15;;;;;;;0.30;0.30;;;4.00;99.90;;;;;;5093247;28;20179;-67
2021/03/19 08:06:45;;;;;;;1.75;1.65;;;4.00;99.90;;;;;;5088098;28;20203;-66
2021/03/19 08:09:53;;;;;;;0.57;0.57;;;3.90;99.90;;;;;;5090029;28;20210;-67
2021/03/19 08:13:02;;;;;;;0.40;0.40;;;3.90;99.90;;;;;;5094675;28;20172;-67
2021/03/19 08:15:45;;;;;;;0.30;0.30;;;3.80;99.90;;;;;;5087354;28;20651;-67
2021/03/19 08:18:30;;;;;;;0.30;0.30;;;3.80;99.90;;;;;;5076546;28;20654;-64
2021/03/19 08:21:18;;;;;;;0.30;0.30;;;3.70;99.90;;;;;;5075170;28;20248;-66
2021/03/19 08:24:10;;;;;;;1.25;1.15;;;3.70;99.90;;;;;;5087755;28;20179;-68
2021/03/19 08:26:44;;;;;;;0.40;0.40;;;3.70;99.90;;;;;;5093334;28;20543;-67
2021/03/19 08:29:29;;;;;;;0.50;0.50;;;3.80;99.90;;;;;;5094067;28;20213;-67
2021/03/19 08:32:13;;;;;;;0.80;0.80;;;3.90;99.90;;;;;;5087024;28;20621;-65
2021/03/19 08:35:00;;;;;;;0.30;0.30;;;4.10;99.90;;;;;;5085528;28;20171;-68
2021/03/19 08:37:46;;;;;;;0.30;0.30;;;4.10;99.90;;;;;;5071162;28;20177;-68
2021/03/19 08:40:31;;;;;;;0.30;0.30;;;4.00;99.90;;;;;;5073495;28;20202;-68
2021/03/19 08:42:58;;;;;;;0.30;0.30;;;4.00;99.90;;;;;;5091376;28;20578;-68
2021/03/19 08:45:28;;;;;;;0.40;0.40;;;4.00;99.90;;;;;;5089690;28;20662;-67
2021/03/19 08:47:58;;;;;;;0.60;0.60;;;4.10;99.90;;;;;;5092168;28;20203;-68
2021/03/19 08:50:37;;;;;;;0.30;0.30;;;4.10;99.90;;;;;;5092232;28;20168;-68
2021/03/19 08:53:07;;;;;;;0.40;0.40;;;4.10;99.90;;;;;;5092734;28;20168;-69
2021/03/19 08:55:37;;;;;;;0.55;0.55;;;4.10;99.90;;;;;;5091962;28;20195;-67
2021/03/19 08:58:41;;;;;;;0.40;0.40;;;4.20;99.90;;;;;;5093389;28;20263;-66
2021/03/19 09:01:09;;;;;;;0.30;0.30;;;4.10;99.90;;;;;;5077947;28;20290;-68
2021/03/19 09:03:38;;;;;;;0.40;0.40;;;4.10;99.90;;;;;;5092983;28;20168;-66
2021/03/19 09:06:08;;;;;;;0.30;0.30;;;4.00;99.90;;;;;;5092620;28;20195;-67
2021/03/19 09:08:58;;;;;;;1.63;1.38;;;3.90;99.90;;;;;;5091852;28;20172;-66
2021/03/19 09:11:43;;;;;;;0.47;0.47;;;3.90;99.90;;;;;;5093192;28;20160;-68
2021/03/19 09:14:09;;;;;;;0.30;0.30;;;4.00;99.90;;;;;;5092253;28;20176;-67
2021/03/19 09:16:57;;;;;;;0.80;0.80;;;4.20;99.90;;;;;;5092642;28;20233;-68
2021/03/19 09:19:31;;;;;;;0.35;0.35;;;4.30;99.90;;;;;;5096229;28;20210;-67
2021/03/19 09:22:25;;;;;;;0.30;0.30;;;4.60;99.90;;;;;;5096646;28;20168;-68
2021/03/19 09:25:09;;;;;;;0.30;0.30;;;4.60;99.90;;;;;;5096378;28;20614;-69
2021/03/19 09:27:55;;;;;;;0.30;0.30;;;4.60;99.90;;;;;;5096687;28;20200;-67
2021/03/19 09:30:41;;;;;;;0.30;0.30;;;4.60;99.90;;;;;;5095673;28;20194;-67
2021/03/19 09:33:31;;;;;;;0.30;0.30;;;4.50;99.90;;;;;;5095563;28;20168;-67
2021/03/19 09:35:56;;;;;;;1.92;1.85;;;4.40;99.90;;;;;;5088691;28;20566;-69
2021/03/19 09:38:22;;;;;;;0.60;0.60;;;4.50;99.90;;;;;;5096154;28;20176;-68
2021/03/19 09:40:56;;;;;;;0.80;0.80;;;4.60;99.90;;;;;;5096530;28;20589;-67
2021/03/19 09:43:36;;;;;;;0.30;0.30;;;4.70;99.90;;;;;;5095245;28;20214;-67
2021/03/19 09:46:29;;;;;;;0.30;0.30;;;4.90;99.90;;;;;;5094567;28;20543;-67
2021/03/19 09:49:00;;;;;;;0.60;0.60;;;5.10;99.90;;;;;;5096173;28;20172;-66
2021/03/19 09:51:41;;;;;;;0.40;0.40;;;5.20;99.90;;;;;;5096365;28;20156;-67
2021/03/19 09:54:22;;;;;;;1.05;0.50;;;5.20;99.90;;;;;;5094975;28;20205;-66
2021/03/19 09:56:49;;;;;;;0.85;0.85;;;5.10;99.90;;;;;;5096165;28;20191;-67
2021/03/19 09:59:22;;;;;;;0.30;0.30;;;5.10;99.90;;;;;;5096380;28;20518;-67
2021/03/19 10:01:49;;;;;;;0.30;0.30;;;5.20;99.90;;;;;;5095994;28;20172;-68
2021/03/19 10:04:36;;;;;;;1.45;1.40;;;5.20;99.90;;;;;;5091872;28;20183;-68
2021/03/19 10:07:18;;;;;;;0.30;0.30;;;5.20;99.90;;;;;;5074717;28;20222;-68
2021/03/19 10:09:54;;;;;;;0.30;0.30;;;5.30;99.90;;;;;;5081197;28;20179;-67
2021/03/19 10:12:21;;;;;;;0.30;0.30;;;5.40;99.90;;;;;;5084648;28;20203;-68
2021/03/19 10:14:50;;;;;;;0.30;0.30;;;5.70;99.90;;;;;;5078608;28;20253;-69
2021/03/19 10:17:26;;;;;;;0.95;0.95;;;5.80;99.90;;;;;;5095573;28;20245;-68
2021/03/19 10:19:59;;;;;;;0.40;0.40;;;5.90;99.90;;;;;;5094528;28;20255;-69
2021/03/19 10:22:35;;;;;;;0.30;0.20;;;5.90;99.90;;;;;;5095812;28;20176;-67
2021/03/19 10:25:30;;;;;;;0.40;0.40;;;5.90;99.90;;;;;;5095205;28;20173;-67
2021/03/19 10:28:00;;;;;;;0.50;0.50;;;5.80;99.90;;;;;;5091128;28;20762;-66
2021/03/19 10:30:54;;;;;;;0.32;0.32;;;5.80;99.90;;;;;;5090823;28;20177;-68
2021/03/19 10:33:36;;;;;;;0.30;0.30;;;5.60;99.90;;;;;;5075974;28;20168;-69
2021/03/19 10:36:06;;;;;;;0.30;0.30;;;5.40;99.90;;;;;;5076135;28;20218;-68
2021/03/19 10:38:40;;;;;;;0.45;0.45;;;5.20;99.90;;;;;;5075980;28;20168;-67
2021/03/19 10:41:32;;;;;;;0.30;0.30;;;5.10;99.90;;;;;;5095332;28;20668;-66
2021/03/19 10:44:13;;;;;;;0.50;0.50;;;5.10;99.90;;;;;;5094929;28;20172;-67
2021/03/19 10:46:52;;;;;;;0.30;0.30;;;5.10;99.90;;;;;;5093751;28;20675;-66
2021/03/19 10:49:50;;;;;;;0.40;0.40;;;5.10;99.90;;;;;;5094825;28;20629;-68
2021/03/19 10:52:40;;;;;;;0.70;0.55;;;5.00;99.90;;;;;;5071938;28;20184;-65
2021/03/19 10:55:12;;;;;;;0.40;0.40;;;5.10;99.90;;;;;;5093210;28;20254;-66
2021/03/19 10:57:40;;;;;;;0.30;0.30;;;5.10;99.90;;;;;;5094879;28;20176;-65
2021/03/19 11:00:43;;;;;;;0.30;0.30;;;5.10;99.90;;;;;;5094986;28;20164;-66
2021/03/19 11:03:44;;;;;;;0.30;0.30;;;5.10;99.90;;;;;;5062991;28;20176;-67
2021/03/19 11:06:15;;;;;;;0.30;0.30;;;5.00;99.90;;;;;;5094836;28;20277;-67
2021/03/19 11:08:41;;;;;;;0.30;0.30;;;5.00;99.90;;;;;;5094610;28;20161;-69
2021/03/19 11:11:07;;;;;;;0.30;0.30;;;4.90;99.90;;;;;;5094742;28;20171;-71
2021/03/19 11:13:36;;;;;;;0.30;0.30;;;4.90;99.90;;;;;;5094615;28;20407;-68
2021/03/19 11:16:06;;;;;;;0.40;0.40;;;4.90;99.90;;;;;;5094096;28;20298;-67
2021/03/19 11:18:40;;;;;;;0.40;0.40;;;4.80;99.90;;;;;;5094474;28;20164;-66
2021/03/19 11:21:06;;;;;;;0.30;0.30;;;4.80;99.90;;;;;;5094403;28;20221;-67
2021/03/19 11:23:39;;;;;;;0.30;0.20;;;4.80;99.90;;;;;;5094209;28;20622;-67
2021/03/19 11:26:29;;;;;;;1.23;1.13;;;4.80;99.90;;;;;;5093527;28;20195;-66
2021/03/19 11:29:13;;;;;;;0.30;0.30;;;4.80;99.90;;;;;;5094556;28;20225;-65
2021/03/19 11:32:03;;;;;;;0.30;0.30;;;4.90;99.90;;;;;;5094442;28;20179;-67
2021/03/19 11:34:36;;;;;;;0.32;0.32;;;4.90;99.90;;;;;;5093744;28;20172;-67
2021/03/19 11:37:25;;;;;;;0.38;0.38;;;4.90;99.90;;;;;;5094131;28;20192;-65
2021/03/19 11:39:55;;;;;;;0.30;0.30;;;4.90;99.90;;;;;;5094210;28;20160;-66
2021/03/19 11:42:30;;;;;;;0.30;0.20;;;4.80;99.90;;;;;;5094067;28;20656;-65
2021/03/19 11:45:00;;;;;;;0.30;0.30;;;4.70;99.90;;;;;;5093279;28;20167;-66
2021/03/19 11:47:29;;;;;;;0.30;0.30;;;4.70;99.90;;;;;;5093939;28;20199;-66
2021/03/19 11:50:22;;;;;;;0.30;0.30;;;4.70;99.90;;;;;;5093913;28;20175;-67
2021/03/19 11:52:54;;;;;;;0.30;0.30;;;4.80;99.90;;;;;;5093350;28;20164;-64
2021/03/19 11:55:33;;;;;;;0.85;0.85;;;4.90;99.90;;;;;;5092994;28;20183;-68
2021/03/19 11:57:59;;;;;;;0.30;0.30;;;4.90;99.90;;;;;;5091889;28;20188;-68
2021/03/19 12:00:27;;;;;;;0.40;0.40;;;4.80;99.90;;;;;;5092890;28;20176;-67
2021/03/19 12:03:31;;;;;;;0.30;0.30;;;4.80;99.90;;;;;;5093130;28;20410;-64
2021/03/19 12:05:57;;;;;;;0.30;0.30;;;4.80;99.90;;;;;;5091200;28;20211;-65
2021/03/19 12:08:24;;;;;;;0.47;0.47;;;4.80;99.90;;;;;;5093184;28;20200;-67
2021/03/19 12:10:50;;;;;;;0.30;0.30;;;4.90;99.90;;;;;;5091884;28;20175;-68
2021/03/19 12:13:16;;;;;;;0.75;0.75;;;4.90;99.90;;;;;;5093758;28;20243;-68
2021/03/19 12:15:43;;;;;;;0.30;0.30;;;5.00;99.90;;;;;;5091922;28;20666;-66
2021/03/19 12:18:11;;;;;;;0.30;0.30;;;5.00;99.90;;;;;;5093377;28;20176;-66
2021/03/19 12:20:36;;;;;;;1.95;1.20;;;5.00;99.90;;;;;;5093529;28;20168;-64
2021/03/19 12:23:03;;;;;;;1.27;1.27;;;5.00;99.90;;;;;;5092767;28;20519;-66
2021/03/19 12:25:31;;;;;;;0.40;0.40;;;5.00;99.90;;;;;;5091226;28;20199;-66
2021/03/19 12:27:58;;;;;;;0.30;0.30;;;4.90;99.90;;;;;;5092950;28;20196;-66
2021/03/19 12:30:25;;;;;;;0.30;0.30;;;5.00;99.90;;;;;;5092855;28;20175;-66
2021/03/19 12:32:53;;;;;;;0.30;0.20;;;5.00;99.90;;;;;;5093302;28;20160;-66
2021/03/19 12:35:21;;;;;;;0.30;0.30;;;5.00;99.90;;;;;;5092394;28;20531;-66
2021/03/19 12:37:48;;;;;;;0.30;0.30;;;5.00;99.90;;;;;;5086335;28;20183;-64
2021/03/19 12:40:14;;;;;;;0.30;0.30;;;5.10;99.90;;;;;;5077393;28;20262;-65
2021/03/19 12:42:40;;;;;;;0.40;0.40;;;5.20;99.90;;;;;;5093094;28;20207;-65
2021/03/19 12:45:09;;;;;;;0.30;0.30;;;5.10;99.90;;;;;;5091450;28;20207;-66
2021/03/19 12:47:35;;;;;;;1.17;1.17;;;5.10;99.90;;;;;;5093214;28;20453;-66
2021/03/19 12:50:01;;;;;;;0.30;0.30;;;4.90;99.90;;;;;;5093165;28;20159;-68
2021/03/19 12:52:27;;;;;;;0.30;0.30;;;4.80;99.90;;;;;;5093480;28;20590;-69
2021/03/19 12:54:53;;;;;;;0.30;0.30;;;4.80;99.90;;;;;;5096807;28;20179;-67
2021/03/19 12:57:18;;;;;;;0.30;0.30;;;4.80;99.90;;;;;;5097283;28;20178;-71
2021/03/19 12:59:44;;;;;;;0.30;0.30;;;4.70;99.90;;;;;;5095939;28;20518;-69
2021/03/19 13:02:10;;;;;;;0.30;0.30;;;4.70;99.90;;;;;;5097155;28;20172;-70
2021/03/19 13:04:35;;;;;;;0.30;0.30;;;4.60;99.90;;;;;;5096805;28;20215;-69
2021/03/19 13:07:06;;;;;;;0.40;0.40;;;4.60;99.90;;;;;;5097122;28;20278;-67
2021/03/19 13:09:32;;;;;;;0.75;0.75;;;4.50;99.90;;;;;;5096658;28;20179;-70
2021/03/19 13:11:58;;;;;;;0.30;0.30;;;4.40;99.90;;;;;;5095745;28;20176;-68
2021/03/19 13:14:24;;;;;;;0.30;0.30;;;4.50;99.90;;;;;;5096433;28;20184;-70
2021/03/19 13:16:49;;;;;;;0.30;0.30;;;4.50;99.90;;;;;;5096662;28;20204;-68
2021/03/19 13:19:17;;;;;;;0.30;0.30;;;4.50;99.90;;;;;;5096765;28;20186;-70
2021/03/19 13:21:43;;;;;;;0.30;0.30;;;4.50;99.90;;;;;;5096937;28;20564;-67
2021/03/19 13:24:09;;;;;;;0.30;0.30;;;4.60;99.90;;;;;;5096270;28;20168;-67
2021/03/19 13:26:34;;;;;;;0.30;0.30;;;4.60;99.90;;;;;;5096713;28;20204;-68
2021/03/19 13:29:00;;;;;;;0.30;0.30;;;4.70;99.90;;;;;;5096621;28;20450;-68
2021/03/19 13:31:26;;;;;;;0.30;0.30;;;4.80;99.90;;;;;;5097118;28;20164;-70
2021/03/19 13:33:52;;;;;;;0.33;0.33;;;4.90;99.90;;;;;;5096264;28;20656;-68
2021/03/19 13:36:18;;;;;;;0.30;0.30;;;4.90;99.90;;;;;;5095305;28;20198;-67
2021/03/19 13:38:44;;;;;;;0.70;0.68;;;4.90;99.90;;;;;;5096691;28;20410;-68
2021/03/19 13:41:11;;;;;;;0.30;0.30;;;4.90;99.90;;;;;;5096437;28;20176;-68
2021/03/19 13:43:39;;;;;;;0.38;0.38;;;4.90;99.90;;;;;;5095944;28;20630;-69